KENV/ENV METAR and TAF weather

Enter ICAO airport designator
Station Type Date Time Source
KENV METAR 2022/01/19 19:56 UTC NOAA

KENV 191956Z AUTO 03/M03 RMK AO2 SLPNO T00281028 PWINO $


Station Type Date Time Source
KENV Decoded METAR 2022/01/19 19:56 UTC NOAA

Wendover / Air Force Auxillary Field, UT, United States (KENV) 40-44N 114-02W 1292M
Jan 19, 2022 - 02:56 PM EST / 2022.01.19 1956 UTC
Temperature: 37.0 F (2.8 C)
Dew Point: 27.0 F (-2.8 C)
Relative Humidity: 66%
ob: KENV 191956Z AUTO 03/M03 RMK AO2 SLPNO T00281028 PWINO
cycle: 20

Station Type Date Time Source
KENV TAF 2022/01/19 18:40 UTC NOAA

TAF KENV 191737Z 1918/2018 VRB04KT P6SM SCT150
FM201200 VRB05KT P6SM FEW040

Example: see airport list